sensor_id;sensor_type;location;lat;lon;timestamp;pressure;altitude;pressure_sealevel;temperature;humidity
52105;BME280;38103;42.776;23.112;2023-03-13T00:03:52;94132.06;;;-1.65;71.98
52105;BME280;38103;42.776;23.112;2023-03-13T00:06:20;94181.00;;;-1.35;72.17
52105;BME280;38103;42.776;23.112;2023-03-13T00:08:46;94184.72;;;-1.38;72.68
52105;BME280;38103;42.776;23.112;2023-03-13T00:11:12;94161.44;;;-1.56;73.03
52105;BME280;38103;42.776;23.112;2023-03-13T00:13:38;94186.97;;;-1.43;72.97
52105;BME280;38103;42.776;23.112;2023-03-13T00:16:09;94195.91;;;-1.37;73.00
52105;BME280;38103;42.776;23.112;2023-03-13T00:18:35;94198.22;;;-1.34;73.26
52105;BME280;38103;42.776;23.112;2023-03-13T00:21:08;94198.34;;;-1.36;73.74
52105;BME280;38103;42.776;23.112;2023-03-13T00:23:35;94189.13;;;-1.30;73.42
52105;BME280;38103;42.776;23.112;2023-03-13T00:26:04;94189.78;;;-1.28;73.07
52105;BME280;38103;42.776;23.112;2023-03-13T00:28:31;94201.47;;;-1.24;72.97
52105;BME280;38103;42.776;23.112;2023-03-13T00:33:26;94190.31;;;-1.24;72.92
52105;BME280;38103;42.776;23.112;2023-03-13T00:35:51;94196.28;;;-1.24;72.74
52105;BME280;38103;42.776;23.112;2023-03-13T00:38:16;94195.31;;;-1.22;72.74
52105;BME280;38103;42.776;23.112;2023-03-13T00:40:42;94185.13;;;-1.24;72.59
52105;BME280;38103;42.776;23.112;2023-03-13T00:43:07;94184.91;;;-1.31;72.96
52105;BME280;38103;42.776;23.112;2023-03-13T00:45:32;94180.53;;;-1.30;72.68
52105;BME280;38103;42.776;23.112;2023-03-13T00:47:58;94192.03;;;-1.33;72.85
52105;BME280;38103;42.776;23.112;2023-03-13T00:50:23;94183.94;;;-1.30;72.73
52105;BME280;38103;42.776;23.112;2023-03-13T00:52:48;94176.47;;;-1.33;72.83
52105;BME280;38103;42.776;23.112;2023-03-13T00:55:14;94181.97;;;-1.36;72.67
52105;BME280;38103;42.776;23.112;2023-03-13T00:57:39;94183.91;;;-1.38;72.57
52105;BME280;38103;42.776;23.112;2023-03-13T01:00:05;94175.47;;;-1.40;72.91
52105;BME280;38103;42.776;23.112;2023-03-13T01:02:31;94173.03;;;-1.42;72.71
52105;BME280;38103;42.776;23.112;2023-03-13T01:04:56;94174.16;;;-1.44;72.71
52105;BME280;38103;42.776;23.112;2023-03-13T01:07:21;94173.47;;;-1.47;72.95
52105;BME280;38103;42.776;23.112;2023-03-13T01:09:47;94166.81;;;-1.49;72.87
52105;BME280;38103;42.776;23.112;2023-03-13T01:12:12;94175.41;;;-1.49;72.64
52105;BME280;38103;42.776;23.112;2023-03-13T01:14:37;94167.44;;;-1.55;72.91
52105;BME280;38103;42.776;23.112;2023-03-13T01:17:03;94172.28;;;-1.61;73.15
52105;BME280;38103;42.776;23.112;2023-03-13T01:19:28;94177.94;;;-1.65;73.42
52105;BME280;38103;42.776;23.112;2023-03-13T01:21:54;94186.66;;;-1.66;73.19
52105;BME280;38103;42.776;23.112;2023-03-13T01:24:19;94183.72;;;-1.72;73.17
52105;BME280;38103;42.776;23.112;2023-03-13T01:26:44;94144.97;;;-2.00;73.49
52105;BME280;38103;42.776;23.112;2023-03-13T01:29:10;94182.53;;;-1.77;73.52
52105;BME280;38103;42.776;23.112;2023-03-13T01:31:35;94140.09;;;-2.03;73.12
52105;BME280;38103;42.776;23.112;2023-03-13T01:34:03;94180.75;;;-1.77;73.18
52105;BME280;38103;42.776;23.112;2023-03-13T01:36:29;94182.69;;;-1.79;73.45
52105;BME280;38103;42.776;23.112;2023-03-13T01:38:57;94186.13;;;-1.78;73.49
52105;BME280;38103;42.776;23.112;2023-03-13T01:41:24;94188.53;;;-1.77;72.94
52105;BME280;38103;42.776;23.112;2023-03-13T01:43:51;94192.25;;;-1.80;73.04
52105;BME280;38103;42.776;23.112;2023-03-13T01:46:35;94185.22;;;-1.87;73.62
52105;BME280;38103;42.776;23.112;2023-03-13T01:49:10;94186.97;;;-2.15;74.58
52105;BME280;38103;42.776;23.112;2023-03-13T01:51:46;94183.88;;;-2.18;74.64
52105;BME280;38103;42.776;23.112;2023-03-13T01:54:29;94193.41;;;-2.19;74.87
52105;BME280;38103;42.776;23.112;2023-03-13T01:57:07;94179.31;;;-2.25;74.87
52105;BME280;38103;42.776;23.112;2023-03-13T01:59:47;94179.13;;;-2.23;74.76
52105;BME280;38103;42.776;23.112;2023-03-13T02:02:14;94188.84;;;-2.25;74.77
52105;BME280;38103;42.776;23.112;2023-03-13T02:04:46;94192.09;;;-2.23;74.64
52105;BME280;38103;42.776;23.112;2023-03-13T02:07:17;94192.75;;;-2.21;74.23
52105;BME280;38103;42.776;23.112;2023-03-13T02:09:47;94197.28;;;-2.23;74.23
52105;BME280;38103;42.776;23.112;2023-03-13T02:12:28;94202.28;;;-2.21;74.17
52105;BME280;38103;42.776;23.112;2023-03-13T02:14:57;94198.28;;;-2.16;74.15
52105;BME280;38103;42.776;23.112;2023-03-13T02:17:24;94204.31;;;-2.15;74.04
52105;BME280;38103;42.776;23.112;2023-03-13T02:19:50;94210.28;;;-2.15;74.10
52105;BME280;38103;42.776;23.112;2023-03-13T02:25:02;94218.53;;;-2.19;74.13
52105;BME280;38103;42.776;23.112;2023-03-13T02:27:29;94217.16;;;-2.23;74.33
52105;BME280;38103;42.776;23.112;2023-03-13T02:29:54;94229.00;;;-2.21;74.61
52105;BME280;38103;42.776;23.112;2023-03-13T02:32:21;94230.00;;;-2.22;74.85
52105;BME280;38103;42.776;23.112;2023-03-13T02:34:49;94230.78;;;-2.21;74.91
52105;BME280;38103;42.776;23.112;2023-03-13T02:37:17;94194.75;;;-2.51;74.93
52105;BME280;38103;42.776;23.112;2023-03-13T02:39:45;94235.16;;;-2.22;75.26
52105;BME280;38103;42.776;23.112;2023-03-13T02:42:13;94238.72;;;-2.23;75.20
52105;BME280;38103;42.776;23.112;2023-03-13T02:44:40;94238.72;;;-2.23;75.20
52105;BME280;38103;42.776;23.112;2023-03-13T02:47:06;94236.78;;;-2.21;75.41
52105;BME280;38103;42.776;23.112;2023-03-13T02:49:34;94243.88;;;-2.23;75.09
52105;BME280;38103;42.776;23.112;2023-03-13T02:52:09;94241.31;;;-2.23;75.18
52105;BME280;38103;42.776;23.112;2023-03-13T02:54:37;94245.66;;;-2.23;75.57
52105;BME280;38103;42.776;23.112;2023-03-13T02:57:04;94242.69;;;-2.29;75.79
52105;BME280;38103;42.776;23.112;2023-03-13T02:59:30;94249.97;;;-2.32;75.99
52105;BME280;38103;42.776;23.112;2023-03-13T03:01:56;94250.91;;;-2.33;76.27
52105;BME280;38103;42.776;23.112;2023-03-13T03:04:23;94261.13;;;-2.32;76.30
52105;BME280;38103;42.776;23.112;2023-03-13T03:06:50;94263.88;;;-2.33;76.39
52105;BME280;38103;42.776;23.112;2023-03-13T03:09:18;94270.69;;;-2.32;76.34
52105;BME280;38103;42.776;23.112;2023-03-13T03:11:44;94276.53;;;-2.30;76.44
52105;BME280;38103;42.776;23.112;2023-03-13T03:14:10;94279.41;;;-2.33;76.39
52105;BME280;38103;42.776;23.112;2023-03-13T03:16:37;94274.22;;;-2.33;76.47
52105;BME280;38103;42.776;23.112;2023-03-13T03:19:03;94272.16;;;-2.30;76.40
52105;BME280;38103;42.776;23.112;2023-03-13T03:21:29;94278.75;;;-2.36;76.55
52105;BME280;38103;42.776;23.112;2023-03-13T03:23:54;94274.00;;;-2.40;76.72
52105;BME280;38103;42.776;23.112;2023-03-13T03:26:20;94271.38;;;-2.59;77.52
52105;BME280;38103;42.776;23.112;2023-03-13T03:28:45;94286.91;;;-2.59;77.69
52105;BME280;38103;42.776;23.112;2023-03-13T03:31:13;94241.88;;;-2.94;77.54
52105;BME280;38103;42.776;23.112;2023-03-13T03:33:40;94295.56;;;-2.50;77.29
52105;BME280;38103;42.776;23.112;2023-03-13T03:36:10;94290.16;;;-2.56;77.26
52105;BME280;38103;42.776;23.112;2023-03-13T03:38:36;94308.78;;;-2.71;78.14
52105;BME280;38103;42.776;23.112;2023-03-13T03:41:04;94312.91;;;-2.78;78.66
52105;BME280;38103;42.776;23.112;2023-03-13T03:43:29;94323.53;;;-2.82;79.01
52105;BME280;38103;42.776;23.112;2023-03-13T03:45:54;94319.69;;;-2.77;79.17
52105;BME280;38103;42.776;23.112;2023-03-13T03:48:20;94319.69;;;-2.77;78.90
52105;BME280;38103;42.776;23.112;2023-03-13T03:50:45;94331.41;;;-2.73;78.52
52105;BME280;38103;42.776;23.112;2023-03-13T03:53:10;94330.41;;;-2.72;78.24
52105;BME280;38103;42.776;23.112;2023-03-13T03:55:36;94328.81;;;-2.73;78.26
52105;BME280;38103;42.776;23.112;2023-03-13T03:58:01;94331.25;;;-2.72;78.03
52105;BME280;38103;42.776;23.112;2023-03-13T04:00:27;94332.91;;;-2.81;78.16
52105;BME280;38103;42.776;23.112;2023-03-13T04:02:53;94343.13;;;-2.79;78.30
52105;BME280;38103;42.776;23.112;2023-03-13T04:05:20;94349.13;;;-2.78;77.75
52105;BME280;38103;42.776;23.112;2023-03-13T04:07:46;94346.66;;;-2.80;77.75
52105;BME280;38103;42.776;23.112;2023-03-13T04:10:11;94345.03;;;-2.81;77.88
52105;BME280;38103;42.776;23.112;2023-03-13T04:12:37;94300.06;;;-3.18;78.43
52105;BME280;38103;42.776;23.112;2023-03-13T04:15:03;94349.13;;;-2.88;78.31
52105;BME280;38103;42.776;23.112;2023-03-13T04:17:28;94354.75;;;-3.03;78.70
52105;BME280;38103;42.776;23.112;2023-03-13T04:19:54;94349.75;;;-3.05;78.97
52105;BME280;38103;42.776;23.112;2023-03-13T04:22:19;94328.53;;;-3.18;79.10
52105;BME280;38103;42.776;23.112;2023-03-13T04:24:44;94365.78;;;-3.01;78.65
52105;BME280;38103;42.776;23.112;2023-03-13T04:27:10;94375.03;;;-2.98;78.87
52105;BME280;38103;42.776;23.112;2023-03-13T04:29:35;94371.78;;;-3.00;78.57
52105;BME280;38103;42.776;23.112;2023-03-13T04:32:01;94379.53;;;-3.00;78.42
52105;BME280;38103;42.776;23.112;2023-03-13T04:34:26;94379.25;;;-2.97;78.63
52105;BME280;38103;42.776;23.112;2023-03-13T04:36:52;94385.09;;;-2.95;78.58
52105;BME280;38103;42.776;23.112;2023-03-13T04:39:17;94381.56;;;-2.94;78.23
52105;BME280;38103;42.776;23.112;2023-03-13T04:41:43;94383.34;;;-2.95;78.57
52105;BME280;38103;42.776;23.112;2023-03-13T04:44:08;94396.28;;;-2.95;78.34
52105;BME280;38103;42.776;23.112;2023-03-13T04:46:34;94380.78;;;-3.05;78.64
52105;BME280;38103;42.776;23.112;2023-03-13T04:49:00;94393.44;;;-3.01;78.71
52105;BME280;38103;42.776;23.112;2023-03-13T04:51:25;94388.94;;;-2.99;78.90
52105;BME280;38103;42.776;23.112;2023-03-13T04:53:51;94390.84;;;-3.01;79.10
52105;BME280;38103;42.776;23.112;2023-03-13T04:56:22;94366.91;;;-3.23;79.60
52105;BME280;38103;42.776;23.112;2023-03-13T04:58:48;94394.25;;;-3.11;80.26
52105;BME280;38103;42.776;23.112;2023-03-13T05:01:13;94402.28;;;-3.04;80.40
52105;BME280;38103;42.776;23.112;2023-03-13T05:03:39;94406.06;;;-2.98;80.18
52105;BME280;38103;42.776;23.112;2023-03-13T05:06:04;94403.38;;;-2.97;80.54
52105;BME280;38103;42.776;23.112;2023-03-13T05:08:30;94408.53;;;-2.87;80.63
52105;BME280;38103;42.776;23.112;2023-03-13T05:10:55;94413.91;;;-2.70;80.61
52105;BME280;38103;42.776;23.112;2023-03-13T05:13:21;94373.09;;;-2.76;79.54
52105;BME280;38103;42.776;23.112;2023-03-13T05:15:47;94413.69;;;-2.39;79.51
52105;BME280;38103;42.776;23.112;2023-03-13T05:18:12;94415.91;;;-2.16;79.51
52105;BME280;38103;42.776;23.112;2023-03-13T05:20:37;94421.28;;;-1.99;78.16
52105;BME280;38103;42.776;23.112;2023-03-13T05:23:03;94411.91;;;-1.82;77.61
52105;BME280;38103;42.776;23.112;2023-03-13T05:25:29;94359.38;;;-2.02;76.70
52105;BME280;38103;42.776;23.112;2023-03-13T05:27:54;94421.34;;;-1.26;76.52
52105;BME280;38103;42.776;23.112;2023-03-13T05:30:19;94428.91;;;-0.87;75.52
52105;BME280;38103;42.776;23.112;2023-03-13T05:32:45;94437.03;;;-0.64;72.43
52105;BME280;38103;42.776;23.112;2023-03-13T05:35:10;94441.06;;;-0.43;71.75
52105;BME280;38103;42.776;23.112;2023-03-13T05:37:36;94441.09;;;-0.35;70.49
52105;BME280;38103;42.776;23.112;2023-03-13T05:40:01;94439.28;;;-0.07;69.53
52105;BME280;38103;42.776;23.112;2023-03-13T05:42:26;94449.13;;;0.16;68.07
52105;BME280;38103;42.776;23.112;2023-03-13T05:44:52;94446.94;;;0.38;67.09
52105;BME280;38103;42.776;23.112;2023-03-13T05:47:17;94441.47;;;0.74;66.65
52105;BME280;38103;42.776;23.112;2023-03-13T05:49:43;94442.13;;;1.02;65.62
52105;BME280;38103;42.776;23.112;2023-03-13T05:52:08;94445.06;;;1.24;65.33
52105;BME280;38103;42.776;23.112;2023-03-13T05:54:34;94441.44;;;1.58;63.65
52105;BME280;38103;42.776;23.112;2023-03-13T05:56:59;94430.47;;;1.88;62.58
52105;BME280;38103;42.776;23.112;2023-03-13T05:59:24;94412.97;;;1.97;61.70
52105;BME280;38103;42.776;23.112;2023-03-13T06:01:50;94415.25;;;2.00;61.29
52105;BME280;38103;42.776;23.112;2023-03-13T06:17:04;94436.16;;;4.10;53.71
52105;BME280;38103;42.776;23.112;2023-03-13T06:19:30;94434.16;;;4.12;53.11
52105;BME280;38103;42.776;23.112;2023-03-13T06:21:56;94436.50;;;4.07;52.61
52105;BME280;38103;42.776;23.112;2023-03-13T06:24:21;94445.94;;;4.39;53.51
52105;BME280;38103;42.776;23.112;2023-03-13T06:26:48;94445.00;;;4.62;52.18
52105;BME280;38103;42.776;23.112;2023-03-13T06:29:14;94451.09;;;4.84;52.01
52105;BME280;38103;42.776;23.112;2023-03-13T06:31:39;94440.28;;;5.16;50.44
52105;BME280;38103;42.776;23.112;2023-03-13T06:34:05;94444.78;;;5.22;50.23
52105;BME280;38103;42.776;23.112;2023-03-13T06:36:30;94449.66;;;5.25;49.97
52105;BME280;38103;42.776;23.112;2023-03-13T06:38:55;94449.91;;;5.31;49.02
52105;BME280;38103;42.776;23.112;2023-03-13T06:41:21;94444.91;;;5.36;48.88
52105;BME280;38103;42.776;23.112;2023-03-13T06:43:46;94430.91;;;5.29;49.12
52105;BME280;38103;42.776;23.112;2023-03-13T06:46:17;94453.78;;;5.35;49.85
52105;BME280;38103;42.776;23.112;2023-03-13T06:48:43;94452.94;;;5.34;50.30
52105;BME280;38103;42.776;23.112;2023-03-13T06:51:10;94452.13;;;5.56;48.72
52105;BME280;38103;42.776;23.112;2023-03-13T06:53:36;94445.44;;;5.82;49.38
52105;BME280;38103;42.776;23.112;2023-03-13T06:56:02;94446.38;;;6.03;48.50
52105;BME280;38103;42.776;23.112;2023-03-13T06:58:27;94400.63;;;5.84;46.14
52105;BME280;38103;42.776;23.112;2023-03-13T07:00:52;94437.84;;;6.30;46.75
52105;BME280;38103;42.776;23.112;2023-03-13T07:03:18;94427.69;;;5.84;46.58
52105;BME280;38103;42.776;23.112;2023-03-13T07:05:43;94446.69;;;5.57;48.16
52105;BME280;38103;42.776;23.112;2023-03-13T07:08:09;94447.09;;;5.90;48.18
52105;BME280;38103;42.776;23.112;2023-03-13T07:10:34;94447.63;;;6.07;48.20
52105;BME280;38103;42.776;23.112;2023-03-13T07:12:59;94434.63;;;5.99;46.89
52105;BME280;38103;42.776;23.112;2023-03-13T07:15:25;94435.91;;;4.57;49.24
52105;BME280;38103;42.776;23.112;2023-03-13T07:17:50;94423.88;;;4.26;51.00
52105;BME280;38103;42.776;23.112;2023-03-13T07:20:16;94446.34;;;4.35;50.50
52105;BME280;38103;42.776;23.112;2023-03-13T07:22:41;94439.38;;;4.43;51.18
52105;BME280;38103;42.776;23.112;2023-03-13T07:25:07;94437.44;;;4.89;49.07
52105;BME280;38103;42.776;23.112;2023-03-13T07:27:33;94442.28;;;5.14;47.46
52105;BME280;38103;42.776;23.112;2023-03-13T07:29:59;94399.31;;;4.86;49.16
52105;BME280;38103;42.776;23.112;2023-03-13T07:32:24;94453.66;;;5.43;47.03
52105;BME280;38103;42.776;23.112;2023-03-13T07:34:49;94452.22;;;5.69;49.77
52105;BME280;38103;42.776;23.112;2023-03-13T07:37:15;94447.03;;;5.03;50.28
52105;BME280;38103;42.776;23.112;2023-03-13T07:39:42;94445.81;;;4.25;50.86
52105;BME280;38103;42.776;23.112;2023-03-13T07:42:11;94446.72;;;4.17;52.43
52105;BME280;38103;42.776;23.112;2023-03-13T07:44:36;94440.28;;;4.35;53.12
52105;BME280;38103;42.776;23.112;2023-03-13T07:47:02;94412.34;;;3.75;53.49
52105;BME280;38103;42.776;23.112;2023-03-13T07:49:27;94433.81;;;4.00;54.25
52105;BME280;38103;42.776;23.112;2023-03-13T07:51:53;94402.41;;;4.00;53.41
52105;BME280;38103;42.776;23.112;2023-03-13T07:54:18;94440.75;;;4.08;54.05
52105;BME280;38103;42.776;23.112;2023-03-13T07:56:43;94438.72;;;4.41;52.30
52105;BME280;38103;42.776;23.112;2023-03-13T07:59:09;94443.91;;;4.19;52.63
52105;BME280;38103;42.776;23.112;2023-03-13T08:01:34;94440.31;;;4.20;53.39
52105;BME280;38103;42.776;23.112;2023-03-13T08:04:00;94405.75;;;4.09;52.85
52105;BME280;38103;42.776;23.112;2023-03-13T08:06:26;94450.94;;;4.71;52.78
52105;BME280;38103;42.776;23.112;2023-03-13T08:08:52;94445.13;;;4.53;51.18
52105;BME280;38103;42.776;23.112;2023-03-13T08:11:22;94441.75;;;4.07;52.76
52105;BME280;38103;42.776;23.112;2023-03-13T08:13:49;94444.22;;;4.46;52.86
52105;BME280;38103;42.776;23.112;2023-03-13T08:16:18;94454.50;;;4.85;51.52
52105;BME280;38103;42.776;23.112;2023-03-13T08:18:46;94404.84;;;4.54;49.80
52105;BME280;38103;42.776;23.112;2023-03-13T08:21:13;94448.13;;;4.72;50.22
52105;BME280;38103;42.776;23.112;2023-03-13T08:23:39;94438.75;;;4.25;51.88
52105;BME280;38103;42.776;23.112;2023-03-13T08:26:10;94440.69;;;4.54;51.99
52105;BME280;38103;42.776;23.112;2023-03-13T08:28:36;94439.25;;;4.51;50.35
52105;BME280;38103;42.776;23.112;2023-03-13T08:31:10;94450.50;;;4.67;49.38
52105;BME280;38103;42.776;23.112;2023-03-13T08:33:37;94431.06;;;5.20;50.85
52105;BME280;38103;42.776;23.112;2023-03-13T08:36:14;94434.13;;;5.81;48.78
52105;BME280;38103;42.776;23.112;2023-03-13T08:38:41;94432.34;;;6.24;48.44
52105;BME280;38103;42.776;23.112;2023-03-13T08:41:09;94432.81;;;6.42;46.42
52105;BME280;38103;42.776;23.112;2023-03-13T08:43:34;94425.09;;;6.82;44.64
52105;BME280;38103;42.776;23.112;2023-03-13T08:46:00;94425.66;;;6.78;45.07
52105;BME280;38103;42.776;23.112;2023-03-13T08:48:25;94426.22;;;6.53;46.70
52105;BME280;38103;42.776;23.112;2023-03-13T08:51:11;94426.72;;;6.97;45.85
52105;BME280;38103;42.776;23.112;2023-03-13T08:53:39;94426.63;;;6.56;45.04
52105;BME280;38103;42.776;23.112;2023-03-13T08:56:06;94430.84;;;5.73;46.63
52105;BME280;38103;42.776;23.112;2023-03-13T08:58:32;94429.47;;;5.77;48.33
52105;BME280;38103;42.776;23.112;2023-03-13T09:01:02;94434.47;;;5.72;50.25
52105;BME280;38103;42.776;23.112;2023-03-13T09:03:28;94417.34;;;6.11;50.95
52105;BME280;38103;42.776;23.112;2023-03-13T09:05:56;94437.97;;;6.14;47.56
52105;BME280;38103;42.776;23.112;2023-03-13T09:08:22;94374.13;;;6.07;45.61
52105;BME280;38103;42.776;23.112;2023-03-13T09:13:21;94431.91;;;6.14;46.38
52105;BME280;38103;42.776;23.112;2023-03-13T09:15:56;94436.31;;;6.49;48.84
52105;BME280;38103;42.776;23.112;2023-03-13T09:18:22;94445.03;;;6.56;48.08
52105;BME280;38103;42.776;23.112;2023-03-13T09:20:48;94438.66;;;5.95;46.96
52105;BME280;38103;42.776;23.112;2023-03-13T09:23:14;94433.69;;;5.78;51.15
52105;BME280;38103;42.776;23.112;2023-03-13T09:25:39;94431.56;;;5.31;48.04
52105;BME280;38103;42.776;23.112;2023-03-13T09:28:04;94439.88;;;5.41;48.95
52105;BME280;38103;42.776;23.112;2023-03-13T09:30:30;94437.34;;;5.26;47.64
52105;BME280;38103;42.776;23.112;2023-03-13T09:32:55;94421.03;;;5.53;48.97
52105;BME280;38103;42.776;23.112;2023-03-13T09:35:20;94425.06;;;5.84;48.78
52105;BME280;38103;42.776;23.112;2023-03-13T09:37:46;94416.47;;;6.04;48.14
52105;BME280;38103;42.776;23.112;2023-03-13T09:40:16;94415.06;;;6.44;46.88
52105;BME280;38103;42.776;23.112;2023-03-13T09:42:54;94419.53;;;6.50;46.75
52105;BME280;38103;42.776;23.112;2023-03-13T09:45:53;94423.63;;;6.59;47.27
52105;BME280;38103;42.776;23.112;2023-03-13T09:51:05;94416.41;;;6.89;47.21
52105;BME280;38103;42.776;23.112;2023-03-13T09:53:47;94409.13;;;7.04;47.48
52105;BME280;38103;42.776;23.112;2023-03-13T09:56:19;94410.59;;;6.31;46.33
52105;BME280;38103;42.776;23.112;2023-03-13T09:58:56;94405.66;;;6.70;46.62
52105;BME280;38103;42.776;23.112;2023-03-13T10:01:27;94350.97;;;5.82;47.16
52105;BME280;38103;42.776;23.112;2023-03-13T10:04:05;94410.16;;;6.27;46.64
52105;BME280;38103;42.776;23.112;2023-03-13T10:06:35;94394.00;;;6.30;46.99
52105;BME280;38103;42.776;23.112;2023-03-13T10:09:18;94388.63;;;6.03;48.65
52105;BME280;38103;42.776;23.112;2023-03-13T10:11:54;94388.97;;;6.29;47.63
52105;BME280;38103;42.776;23.112;2023-03-13T10:14:43;94392.09;;;6.59;48.37
52105;BME280;38103;42.776;23.112;2023-03-13T10:19:43;94381.88;;;6.22;48.01
52105;BME280;38103;42.776;23.112;2023-03-13T10:22:20;94382.50;;;6.31;49.66
52105;BME280;38103;42.776;23.112;2023-03-13T10:25:03;94368.66;;;6.65;48.33
52105;BME280;38103;42.776;23.112;2023-03-13T10:27:31;94368.66;;;6.78;47.51
52105;BME280;38103;42.776;23.112;2023-03-13T10:30:16;94363.22;;;6.87;47.29
52105;BME280;38103;42.776;23.112;2023-03-13T10:32:44;94354.53;;;7.00;47.16
52105;BME280;38103;42.776;23.112;2023-03-13T10:35:19;94350.06;;;6.93;48.30
52105;BME280;38103;42.776;23.112;2023-03-13T10:37:45;94350.28;;;6.92;47.51
52105;BME280;38103;42.776;23.112;2023-03-13T10:42:42;94345.03;;;6.85;49.82
52105;BME280;38103;42.776;23.112;2023-03-13T10:45:15;94341.59;;;7.19;46.63
52105;BME280;38103;42.776;23.112;2023-03-13T10:47:41;94337.56;;;7.02;47.38
52105;BME280;38103;42.776;23.112;2023-03-13T10:50:07;94336.13;;;7.20;44.90
52105;BME280;38103;42.776;23.112;2023-03-13T10:52:44;94268.81;;;6.72;45.47
52105;BME280;38103;42.776;23.112;2023-03-13T10:55:12;94320.53;;;6.44;46.68
52105;BME280;38103;42.776;23.112;2023-03-13T10:57:42;94318.91;;;6.43;48.56
52105;BME280;38103;42.776;23.112;2023-03-13T11:00:27;94331.38;;;6.20;49.01
52105;BME280;38103;42.776;23.112;2023-03-13T11:02:53;94324.56;;;6.53;49.46
52105;BME280;38103;42.776;23.112;2023-03-13T11:07:53;94323.00;;;6.79;48.80
52105;BME280;38103;42.776;23.112;2023-03-13T11:10:22;94322.59;;;6.89;48.74
52105;BME280;38103;42.776;23.112;2023-03-13T11:12:51;94295.69;;;7.08;49.52
52105;BME280;38103;42.776;23.112;2023-03-13T11:15:22;94302.34;;;7.31;50.05
52105;BME280;38103;42.776;23.112;2023-03-13T11:18:01;94308.44;;;7.11;46.78
52105;BME280;38103;42.776;23.112;2023-03-13T11:20:33;94300.75;;;7.02;49.50
52105;BME280;38103;42.776;23.112;2023-03-13T11:23:18;94301.13;;;7.26;46.65
52105;BME280;38103;42.776;23.112;2023-03-13T11:31:39;94291.00;;;7.37;48.75
52105;BME280;38103;42.776;23.112;2023-03-13T11:34:10;94284.25;;;7.62;47.54
52105;BME280;38103;42.776;23.112;2023-03-13T11:36:52;94281.09;;;7.99;47.02
52105;BME280;38103;42.776;23.112;2023-03-13T11:50:31;94256.94;;;7.63;44.54
52105;BME280;38103;42.776;23.112;2023-03-13T11:58:54;94239.25;;;7.77;49.09
52105;BME280;38103;42.776;23.112;2023-03-13T12:01:17;94222.78;;;7.49;44.38
52105;BME280;38103;42.776;23.112;2023-03-13T12:06:32;94229.44;;;7.52;44.81
52105;BME280;38103;42.776;23.112;2023-03-13T12:09:15;94225.91;;;7.71;46.88
52105;BME280;38103;42.776;23.112;2023-03-13T12:14:21;94226.50;;;7.74;43.45
52105;BME280;38103;42.776;23.112;2023-03-13T12:16:53;94224.81;;;7.86;45.13
52105;BME280;38103;42.776;23.112;2023-03-13T12:19:28;94226.28;;;8.14;43.99
52105;BME280;38103;42.776;23.112;2023-03-13T12:21:55;94215.59;;;8.42;45.55
52105;BME280;38103;42.776;23.112;2023-03-13T12:24:39;94223.22;;;8.50;42.83
52105;BME280;38103;42.776;23.112;2023-03-13T12:27:20;94215.50;;;8.55;41.45
52105;BME280;38103;42.776;23.112;2023-03-13T12:33:13;94188.09;;;8.56;41.61
52105;BME280;38103;42.776;23.112;2023-03-13T12:35:35;94171.97;;;8.71;42.43
52105;BME280;38103;42.776;23.112;2023-03-13T12:38:18;94212.47;;;9.22;43.32
52105;BME280;38103;42.776;23.112;2023-03-13T12:43:22;94203.13;;;8.81;38.48
52105;BME280;38103;42.776;23.112;2023-03-13T13:01:58;94207.06;;;9.35;38.01
52105;BME280;38103;42.776;23.112;2023-03-13T13:04:30;94177.06;;;8.92;35.84
52105;BME280;38103;42.776;23.112;2023-03-13T13:07:03;94197.47;;;8.78;37.26
52105;BME280;38103;42.776;23.112;2023-03-13T13:12:02;94175.81;;;8.50;38.03
52105;BME280;38103;42.776;23.112;2023-03-13T13:17:18;94166.91;;;8.96;39.89
52105;BME280;38103;42.776;23.112;2023-03-13T13:19:46;94168.25;;;8.79;36.85
52105;BME280;38103;42.776;23.112;2023-03-13T13:27:50;94128.56;;;8.74;37.53
52105;BME280;38103;42.776;23.112;2023-03-13T13:35:35;94168.50;;;9.53;32.99
52105;BME280;38103;42.776;23.112;2023-03-13T13:43:22;94160.13;;;9.87;31.01
52105;BME280;38103;42.776;23.112;2023-03-13T13:46:30;94157.16;;;9.95;32.79
52105;BME280;38103;42.776;23.112;2023-03-13T13:51:38;94168.94;;;9.31;33.89
52105;BME280;38103;42.776;23.112;2023-03-13T13:54:29;94151.66;;;9.35;34.26
52105;BME280;38103;42.776;23.112;2023-03-13T13:56:57;94150.72;;;9.60;34.70
52105;BME280;38103;42.776;23.112;2023-03-13T13:59:29;94147.25;;;9.79;36.99
52105;BME280;38103;42.776;23.112;2023-03-13T14:12:36;94148.34;;;9.21;32.35
52105;BME280;38103;42.776;23.112;2023-03-13T14:15:40;94151.88;;;9.15;32.65
52105;BME280;38103;42.776;23.112;2023-03-13T14:18:26;94147.06;;;9.12;32.03
52105;BME280;38103;42.776;23.112;2023-03-13T14:21:01;94150.63;;;8.99;31.99
52105;BME280;38103;42.776;23.112;2023-03-13T14:28:59;94148.66;;;9.13;32.37
52105;BME280;38103;42.776;23.112;2023-03-13T14:33:52;94154.53;;;8.96;31.15
52105;BME280;38103;42.776;23.112;2023-03-13T14:36:17;94151.88;;;9.15;32.21
52105;BME280;38103;42.776;23.112;2023-03-13T14:39:01;94155.06;;;9.36;32.34
52105;BME280;38103;42.776;23.112;2023-03-13T14:41:35;94132.09;;;9.24;32.52
52105;BME280;38103;42.776;23.112;2023-03-13T14:44:05;94144.59;;;9.48;32.67
52105;BME280;38103;42.776;23.112;2023-03-13T14:46:39;94138.47;;;9.66;32.85
52105;BME280;38103;42.776;23.112;2023-03-13T14:49:18;94153.25;;;9.55;32.61
52105;BME280;38103;42.776;23.112;2023-03-13T14:51:45;94140.84;;;9.56;31.37
52105;BME280;38103;42.776;23.112;2023-03-13T14:54:35;94144.09;;;9.39;31.10
52105;BME280;38103;42.776;23.112;2023-03-13T14:59:30;94144.00;;;9.46;30.93
52105;BME280;38103;42.776;23.112;2023-03-13T15:02:01;94143.22;;;9.45;31.13
52105;BME280;38103;42.776;23.112;2023-03-13T15:07:16;94153.13;;;9.62;32.60
52105;BME280;38103;42.776;23.112;2023-03-13T15:09:43;94146.16;;;9.68;32.04
52105;BME280;38103;42.776;23.112;2023-03-13T15:12:13;94148.84;;;9.80;31.38
52105;BME280;38103;42.776;23.112;2023-03-13T15:14:41;94141.06;;;9.85;31.75